sensor_id;sensor_type;location;lat;lon;timestamp;pressure;altitude;pressure_sealevel;temperature;humidity
35291;BME280;21411;50.024;19.220;2023-11-21T00:00:35;98104.27;;;8.13;100.00
35291;BME280;21411;50.024;19.220;2023-11-21T00:03:23;98100.39;;;8.13;100.00
35291;BME280;21411;50.024;19.220;2023-11-21T00:05:50;98100.10;;;8.12;100.00
35291;BME280;21411;50.024;19.220;2023-11-21T00:08:17;98104.35;;;8.12;100.00
35291;BME280;21411;50.024;19.220;2023-11-21T00:10:43;98099.43;;;8.12;100.00
35291;BME280;21411;50.024;19.220;2023-11-21T00:13:10;98100.91;;;8.11;100.00
35291;BME280;21411;50.024;19.220;2023-11-21T00:15:39;98106.09;;;8.10;100.00
35291;BME280;21411;50.024;19.220;2023-11-21T00:18:06;98105.83;;;8.09;100.00
35291;BME280;21411;50.024;19.220;2023-11-21T00:20:33;98103.77;;;8.08;100.00
35291;BME280;21411;50.024;19.220;2023-11-21T00:23:00;98107.70;;;8.07;100.00
35291;BME280;21411;50.024;19.220;2023-11-21T00:25:28;98107.02;;;8.07;100.00
35291;BME280;21411;50.024;19.220;2023-11-21T00:27:55;98106.44;;;8.08;100.00
35291;BME280;21411;50.024;19.220;2023-11-21T00:30:22;98110.34;;;8.08;100.00
35291;BME280;21411;50.024;19.220;2023-11-21T00:32:48;98112.88;;;8.07;100.00
35291;BME280;21411;50.024;19.220;2023-11-21T00:35:15;98112.20;;;8.06;100.00
35291;BME280;21411;50.024;19.220;2023-11-21T00:37:42;98109.91;;;8.06;100.00
35291;BME280;21411;50.024;19.220;2023-11-21T00:40:09;98111.19;;;8.06;100.00
35291;BME280;21411;50.024;19.220;2023-11-21T00:42:36;98114.11;;;8.04;100.00
35291;BME280;21411;50.024;19.220;2023-11-21T00:45:03;98115.03;;;8.04;100.00
35291;BME280;21411;50.024;19.220;2023-11-21T00:47:30;98111.38;;;8.03;100.00
35291;BME280;21411;50.024;19.220;2023-11-21T00:49:56;98118.10;;;8.03;100.00
35291;BME280;21411;50.024;19.220;2023-11-21T00:52:23;98118.13;;;8.03;100.00
35291;BME280;21411;50.024;19.220;2023-11-21T00:54:50;98120.34;;;8.01;100.00
35291;BME280;21411;50.024;19.220;2023-11-21T00:57:17;98118.84;;;8.00;100.00
35291;BME280;21411;50.024;19.220;2023-11-21T00:59:43;98123.37;;;7.98;100.00
35291;BME280;21411;50.024;19.220;2023-11-21T01:02:10;98124.79;;;7.98;100.00
35291;BME280;21411;50.024;19.220;2023-11-21T01:04:37;98117.58;;;7.98;100.00
35291;BME280;21411;50.024;19.220;2023-11-21T01:07:04;98116.37;;;7.97;100.00
35291;BME280;21411;50.024;19.220;2023-11-21T01:09:32;98118.43;;;7.96;100.00
35291;BME280;21411;50.024;19.220;2023-11-21T01:11:58;98116.65;;;7.93;100.00
35291;BME280;21411;50.024;19.220;2023-11-21T01:14:26;98119.23;;;7.89;100.00
35291;BME280;21411;50.024;19.220;2023-11-21T01:16:53;98117.64;;;7.84;100.00
35291;BME280;21411;50.024;19.220;2023-11-21T01:19:20;98120.84;;;7.79;100.00
35291;BME280;21411;50.024;19.220;2023-11-21T01:21:46;98124.40;;;7.74;100.00
35291;BME280;21411;50.024;19.220;2023-11-21T01:24:13;98125.73;;;7.70;100.00
35291;BME280;21411;50.024;19.220;2023-11-21T01:26:40;98122.54;;;7.67;100.00
35291;BME280;21411;50.024;19.220;2023-11-21T01:29:07;98126.34;;;7.66;100.00
35291;BME280;21411;50.024;19.220;2023-11-21T01:31:33;98131.33;;;7.65;100.00
35291;BME280;21411;50.024;19.220;2023-11-21T01:34:00;98127.16;;;7.64;100.00
35291;BME280;21411;50.024;19.220;2023-11-21T01:36:31;98132.21;;;7.63;100.00
35291;BME280;21411;50.024;19.220;2023-11-21T01:39:00;98138.64;;;7.62;100.00
35291;BME280;21411;50.024;19.220;2023-11-21T01:41:27;98139.30;;;7.62;100.00
35291;BME280;21411;50.024;19.220;2023-11-21T01:43:55;98136.39;;;7.64;100.00
35291;BME280;21411;50.024;19.220;2023-11-21T01:46:22;98138.81;;;7.64;100.00
35291;BME280;21411;50.024;19.220;2023-11-21T01:48:49;98140.52;;;7.65;100.00
35291;BME280;21411;50.024;19.220;2023-11-21T01:51:17;98140.16;;;7.65;100.00
35291;BME280;21411;50.024;19.220;2023-11-21T01:53:45;98138.70;;;7.66;100.00
35291;BME280;21411;50.024;19.220;2023-11-21T01:56:13;98139.88;;;7.67;100.00
35291;BME280;21411;50.024;19.220;2023-11-21T01:58:40;98136.88;;;7.67;100.00
35291;BME280;21411;50.024;19.220;2023-11-21T02:01:07;98139.66;;;7.65;100.00
35291;BME280;21411;50.024;19.220;2023-11-21T02:03:34;98142.34;;;7.65;100.00
35291;BME280;21411;50.024;19.220;2023-11-21T02:06:01;98139.56;;;7.64;100.00
35291;BME280;21411;50.024;19.220;2023-11-21T02:08:28;98137.08;;;7.64;100.00
35291;BME280;21411;50.024;19.220;2023-11-21T02:10:54;98140.95;;;7.64;100.00
35291;BME280;21411;50.024;19.220;2023-11-21T02:13:21;98142.95;;;7.63;100.00
35291;BME280;21411;50.024;19.220;2023-11-21T02:15:48;98142.56;;;7.64;100.00
35291;BME280;21411;50.024;19.220;2023-11-21T02:18:16;98139.03;;;7.64;100.00
35291;BME280;21411;50.024;19.220;2023-11-21T02:20:44;98140.59;;;7.64;100.00
35291;BME280;21411;50.024;19.220;2023-11-21T02:23:10;98141.14;;;7.64;100.00
35291;BME280;21411;50.024;19.220;2023-11-21T02:25:39;98140.44;;;7.64;100.00
35291;BME280;21411;50.024;19.220;2023-11-21T02:28:05;98145.38;;;7.64;100.00
35291;BME280;21411;50.024;19.220;2023-11-21T02:30:33;98148.39;;;7.64;100.00
35291;BME280;21411;50.024;19.220;2023-11-21T02:33:00;98141.36;;;7.63;100.00
35291;BME280;21411;50.024;19.220;2023-11-21T02:35:27;98143.14;;;7.63;100.00
35291;BME280;21411;50.024;19.220;2023-11-21T02:37:54;98144.02;;;7.63;100.00
35291;BME280;21411;50.024;19.220;2023-11-21T02:40:21;98148.42;;;7.64;100.00
35291;BME280;21411;50.024;19.220;2023-11-21T02:42:47;98151.61;;;7.64;100.00
35291;BME280;21411;50.024;19.220;2023-11-21T02:45:14;98153.58;;;7.63;100.00
35291;BME280;21411;50.024;19.220;2023-11-21T02:47:44;98151.44;;;7.63;100.00
35291;BME280;21411;50.024;19.220;2023-11-21T02:50:11;98154.60;;;7.64;100.00
35291;BME280;21411;50.024;19.220;2023-11-21T02:52:37;98157.02;;;7.64;100.00
35291;BME280;21411;50.024;19.220;2023-11-21T02:55:05;98154.52;;;7.65;100.00
35291;BME280;21411;50.024;19.220;2023-11-21T02:57:33;98156.83;;;7.65;100.00
35291;BME280;21411;50.024;19.220;2023-11-21T03:00:00;98159.11;;;7.65;100.00
35291;BME280;21411;50.024;19.220;2023-11-21T03:02:41;98162.09;;;7.65;100.00
35291;BME280;21411;50.024;19.220;2023-11-21T03:05:08;98168.09;;;7.65;100.00
35291;BME280;21411;50.024;19.220;2023-11-21T03:07:38;98168.30;;;7.65;100.00
35291;BME280;21411;50.024;19.220;2023-11-21T03:10:07;98170.08;;;7.65;100.00
35291;BME280;21411;50.024;19.220;2023-11-21T03:12:35;98169.86;;;7.65;100.00
35291;BME280;21411;50.024;19.220;2023-11-21T03:15:02;98171.45;;;7.65;100.00
35291;BME280;21411;50.024;19.220;2023-11-21T03:17:28;98168.09;;;7.65;100.00
35291;BME280;21411;50.024;19.220;2023-11-21T03:19:55;98170.55;;;7.66;100.00
35291;BME280;21411;50.024;19.220;2023-11-21T03:22:23;98169.98;;;7.66;100.00
35291;BME280;21411;50.024;19.220;2023-11-21T03:24:50;98166.79;;;7.66;100.00
35291;BME280;21411;50.024;19.220;2023-11-21T03:27:16;98167.20;;;7.65;100.00
35291;BME280;21411;50.024;19.220;2023-11-21T03:29:43;98163.11;;;7.66;100.00
35291;BME280;21411;50.024;19.220;2023-11-21T03:32:11;98161.31;;;7.66;100.00
35291;BME280;21411;50.024;19.220;2023-11-21T03:34:57;98157.74;;;7.67;100.00
35291;BME280;21411;50.024;19.220;2023-11-21T03:37:24;98160.85;;;7.68;100.00
35291;BME280;21411;50.024;19.220;2023-11-21T03:39:55;98164.06;;;7.67;100.00
35291;BME280;21411;50.024;19.220;2023-11-21T03:42:22;98167.27;;;7.67;100.00
35291;BME280;21411;50.024;19.220;2023-11-21T03:44:49;98167.69;;;7.66;100.00
35291;BME280;21411;50.024;19.220;2023-11-21T03:47:15;98163.71;;;7.64;100.00
35291;BME280;21411;50.024;19.220;2023-11-21T03:49:42;98163.78;;;7.64;100.00
35291;BME280;21411;50.024;19.220;2023-11-21T03:52:08;98164.02;;;7.63;100.00
35291;BME280;21411;50.024;19.220;2023-11-21T03:54:35;98159.33;;;7.62;100.00
35291;BME280;21411;50.024;19.220;2023-11-21T03:57:03;98164.45;;;7.62;100.00
35291;BME280;21411;50.024;19.220;2023-11-21T03:59:30;98163.28;;;7.61;100.00
35291;BME280;21411;50.024;19.220;2023-11-21T04:01:56;98163.52;;;7.60;100.00
35291;BME280;21411;50.024;19.220;2023-11-21T04:04:23;98162.20;;;7.58;100.00
35291;BME280;21411;50.024;19.220;2023-11-21T04:06:50;98162.41;;;7.58;100.00
35291;BME280;21411;50.024;19.220;2023-11-21T04:09:18;98158.98;;;7.57;100.00
35291;BME280;21411;50.024;19.220;2023-11-21T04:11:45;98158.70;;;7.56;100.00
35291;BME280;21411;50.024;19.220;2023-11-21T04:14:12;98157.05;;;7.54;100.00
35291;BME280;21411;50.024;19.220;2023-11-21T04:16:40;98155.98;;;7.51;100.00
35291;BME280;21411;50.024;19.220;2023-11-21T04:19:07;98154.02;;;7.49;100.00
35291;BME280;21411;50.024;19.220;2023-11-21T04:21:33;98153.99;;;7.46;100.00
35291;BME280;21411;50.024;19.220;2023-11-21T04:24:00;98151.17;;;7.44;100.00
35291;BME280;21411;50.024;19.220;2023-11-21T04:26:27;98154.46;;;7.42;100.00
35291;BME280;21411;50.024;19.220;2023-11-21T04:28:54;98155.94;;;7.41;100.00
35291;BME280;21411;50.024;19.220;2023-11-21T04:31:20;98161.77;;;7.41;100.00
35291;BME280;21411;50.024;19.220;2023-11-21T04:33:47;98159.90;;;7.41;100.00
35291;BME280;21411;50.024;19.220;2023-11-21T04:36:14;98162.58;;;7.40;100.00
35291;BME280;21411;50.024;19.220;2023-11-21T04:38:40;98161.02;;;7.39;100.00
35291;BME280;21411;50.024;19.220;2023-11-21T04:41:07;98161.55;;;7.40;100.00
35291;BME280;21411;50.024;19.220;2023-11-21T04:43:34;98165.11;;;7.39;100.00
35291;BME280;21411;50.024;19.220;2023-11-21T04:46:01;98163.73;;;7.39;100.00
35291;BME280;21411;50.024;19.220;2023-11-21T04:48:28;98166.02;;;7.39;100.00
35291;BME280;21411;50.024;19.220;2023-11-21T04:50:55;98171.52;;;7.38;100.00
35291;BME280;21411;50.024;19.220;2023-11-21T04:53:22;98173.98;;;7.38;100.00
35291;BME280;21411;50.024;19.220;2023-11-21T04:55:49;98176.60;;;7.39;100.00
35291;BME280;21411;50.024;19.220;2023-11-21T04:58:16;98178.52;;;7.39;100.00
35291;BME280;21411;50.024;19.220;2023-11-21T05:00:42;98179.27;;;7.39;100.00
35291;BME280;21411;50.024;19.220;2023-11-21T05:03:10;98181.84;;;7.40;100.00
35291;BME280;21411;50.024;19.220;2023-11-21T05:05:37;98182.84;;;7.41;100.00
35291;BME280;21411;50.024;19.220;2023-11-21T05:08:04;98180.52;;;7.41;100.00
35291;BME280;21411;50.024;19.220;2023-11-21T05:10:31;98181.23;;;7.41;100.00
35291;BME280;21411;50.024;19.220;2023-11-21T05:12:58;98183.83;;;7.42;100.00
35291;BME280;21411;50.024;19.220;2023-11-21T05:15:24;98189.77;;;7.43;100.00
35291;BME280;21411;50.024;19.220;2023-11-21T05:17:51;98192.97;;;7.42;100.00
35291;BME280;21411;50.024;19.220;2023-11-21T05:20:18;98204.41;;;7.43;100.00
35291;BME280;21411;50.024;19.220;2023-11-21T05:22:47;98205.79;;;7.44;100.00
35291;BME280;21411;50.024;19.220;2023-11-21T05:25:17;98208.95;;;7.44;100.00
35291;BME280;21411;50.024;19.220;2023-11-21T05:27:47;98210.90;;;7.44;100.00
35291;BME280;21411;50.024;19.220;2023-11-21T05:30:14;98218.35;;;7.43;100.00
35291;BME280;21411;50.024;19.220;2023-11-21T05:32:41;98220.21;;;7.42;100.00
35291;BME280;21411;50.024;19.220;2023-11-21T05:35:10;98219.46;;;7.40;100.00
35291;BME280;21411;50.024;19.220;2023-11-21T05:37:42;98223.27;;;7.39;100.00
35291;BME280;21411;50.024;19.220;2023-11-21T05:40:09;98224.27;;;7.37;100.00
35291;BME280;21411;50.024;19.220;2023-11-21T05:42:36;98225.98;;;7.35;100.00
35291;BME280;21411;50.024;19.220;2023-11-21T05:45:04;98228.21;;;7.33;100.00
35291;BME280;21411;50.024;19.220;2023-11-21T05:47:42;98229.04;;;7.32;100.00
35291;BME280;21411;50.024;19.220;2023-11-21T05:50:10;98231.98;;;7.30;100.00
35291;BME280;21411;50.024;19.220;2023-11-21T05:52:38;98233.09;;;7.29;100.00
35291;BME280;21411;50.024;19.220;2023-11-21T05:55:08;98232.23;;;7.29;100.00
35291;BME280;21411;50.024;19.220;2023-11-21T05:57:36;98229.09;;;7.28;100.00
35291;BME280;21411;50.024;19.220;2023-11-21T06:00:07;98232.89;;;7.27;100.00
35291;BME280;21411;50.024;19.220;2023-11-21T06:02:39;98236.50;;;7.25;100.00
35291;BME280;21411;50.024;19.220;2023-11-21T06:05:09;98235.82;;;7.25;100.00
35291;BME280;21411;50.024;19.220;2023-11-21T06:07:37;98235.92;;;7.26;100.00
35291;BME280;21411;50.024;19.220;2023-11-21T06:10:04;98238.74;;;7.26;100.00
35291;BME280;21411;50.024;19.220;2023-11-21T06:12:39;98238.75;;;7.26;100.00
35291;BME280;21411;50.024;19.220;2023-11-21T06:15:07;98239.48;;;7.25;100.00
35291;BME280;21411;50.024;19.220;2023-11-21T06:17:35;98244.30;;;7.25;100.00
35291;BME280;21411;50.024;19.220;2023-11-21T06:20:06;98249.41;;;7.25;100.00
35291;BME280;21411;50.024;19.220;2023-11-21T06:22:37;98249.48;;;7.24;100.00
35291;BME280;21411;50.024;19.220;2023-11-21T06:25:04;98249.89;;;7.23;100.00
35291;BME280;21411;50.024;19.220;2023-11-21T06:27:32;98248.98;;;7.24;100.00
35291;BME280;21411;50.024;19.220;2023-11-21T06:29:59;98248.05;;;7.24;100.00
35291;BME280;21411;50.024;19.220;2023-11-21T06:32:26;98248.81;;;7.26;100.00
35291;BME280;21411;50.024;19.220;2023-11-21T06:34:55;98250.50;;;7.28;100.00
35291;BME280;21411;50.024;19.220;2023-11-21T06:37:22;98253.59;;;7.29;100.00
35291;BME280;21411;50.024;19.220;2023-11-21T06:39:49;98251.16;;;7.31;100.00
35291;BME280;21411;50.024;19.220;2023-11-21T06:42:19;98252.88;;;7.32;100.00
35291;BME280;21411;50.024;19.220;2023-11-21T06:44:48;98257.97;;;7.32;100.00
35291;BME280;21411;50.024;19.220;2023-11-21T06:47:15;98259.02;;;7.32;100.00
35291;BME280;21411;50.024;19.220;2023-11-21T06:49:42;98261.23;;;7.34;100.00
35291;BME280;21411;50.024;19.220;2023-11-21T06:52:09;98265.02;;;7.35;100.00
35291;BME280;21411;50.024;19.220;2023-11-21T06:54:36;98268.73;;;7.38;100.00
35291;BME280;21411;50.024;19.220;2023-11-21T06:57:03;98274.05;;;7.40;100.00
35291;BME280;21411;50.024;19.220;2023-11-21T06:59:30;98273.96;;;7.42;100.00
35291;BME280;21411;50.024;19.220;2023-11-21T07:01:57;98273.52;;;7.43;100.00
35291;BME280;21411;50.024;19.220;2023-11-21T07:04:24;98279.06;;;7.45;100.00
35291;BME280;21411;50.024;19.220;2023-11-21T07:06:53;98278.92;;;7.47;100.00
35291;BME280;21411;50.024;19.220;2023-11-21T07:09:20;98279.94;;;7.50;100.00
35291;BME280;21411;50.024;19.220;2023-11-21T07:11:52;98281.88;;;7.53;100.00
35291;BME280;21411;50.024;19.220;2023-11-21T07:14:19;98285.17;;;7.57;100.00
35291;BME280;21411;50.024;19.220;2023-11-21T07:16:46;98286.84;;;7.61;100.00
35291;BME280;21411;50.024;19.220;2023-11-21T07:19:13;98289.24;;;7.65;100.00
35291;BME280;21411;50.024;19.220;2023-11-21T07:21:40;98289.98;;;7.67;100.00
35291;BME280;21411;50.024;19.220;2023-11-21T07:24:07;98290.38;;;7.68;100.00
35291;BME280;21411;50.024;19.220;2023-11-21T07:26:35;98294.61;;;7.72;100.00
35291;BME280;21411;50.024;19.220;2023-11-21T07:29:02;98293.44;;;7.76;100.00
35291;BME280;21411;50.024;19.220;2023-11-21T07:31:29;98294.52;;;7.78;100.00
35291;BME280;21411;50.024;19.220;2023-11-21T07:33:56;98299.05;;;7.79;100.00
35291;BME280;21411;50.024;19.220;2023-11-21T07:36:26;98296.33;;;7.83;100.00
35291;BME280;21411;50.024;19.220;2023-11-21T07:38:53;98300.65;;;7.89;100.00
35291;BME280;21411;50.024;19.220;2023-11-21T07:41:20;98303.64;;;7.96;100.00
35291;BME280;21411;50.024;19.220;2023-11-21T07:43:47;98307.39;;;8.03;100.00
35291;BME280;21411;50.024;19.220;2023-11-21T07:46:13;98308.42;;;8.11;100.00
35291;BME280;21411;50.024;19.220;2023-11-21T07:48:41;98311.80;;;8.19;100.00
35291;BME280;21411;50.024;19.220;2023-11-21T07:51:09;98316.11;;;8.23;100.00
35291;BME280;21411;50.024;19.220;2023-11-21T07:53:36;98315.68;;;8.22;100.00
35291;BME280;21411;50.024;19.220;2023-11-21T07:56:04;98316.76;;;8.19;100.00
35291;BME280;21411;50.024;19.220;2023-11-21T07:58:31;98317.23;;;8.17;100.00
35291;BME280;21411;50.024;19.220;2023-11-21T08:01:00;98318.31;;;8.19;100.00
35291;BME280;21411;50.024;19.220;2023-11-21T08:03:27;98321.33;;;8.24;100.00
35291;BME280;21411;50.024;19.220;2023-11-21T08:05:57;98323.14;;;8.29;100.00
35291;BME280;21411;50.024;19.220;2023-11-21T08:08:24;98324.23;;;8.33;100.00
35291;BME280;21411;50.024;19.220;2023-11-21T08:10:51;98323.23;;;8.38;100.00
35291;BME280;21411;50.024;19.220;2023-11-21T08:13:25;98323.23;;;8.43;100.00
35291;BME280;21411;50.024;19.220;2023-11-21T08:15:55;98323.75;;;8.49;100.00
35291;BME280;21411;50.024;19.220;2023-11-21T08:18:22;98327.34;;;8.50;100.00
35291;BME280;21411;50.024;19.220;2023-11-21T08:20:49;98332.85;;;8.53;100.00
35291;BME280;21411;50.024;19.220;2023-11-21T08:23:16;98332.29;;;8.53;100.00
35291;BME280;21411;50.024;19.220;2023-11-21T08:25:45;98331.58;;;8.53;100.00
35291;BME280;21411;50.024;19.220;2023-11-21T08:28:12;98333.46;;;8.54;100.00
35291;BME280;21411;50.024;19.220;2023-11-21T08:30:41;98334.86;;;8.57;100.00
35291;BME280;21411;50.024;19.220;2023-11-21T08:33:08;98336.14;;;8.62;100.00
35291;BME280;21411;50.024;19.220;2023-11-21T08:35:35;98338.35;;;8.66;100.00
35291;BME280;21411;50.024;19.220;2023-11-21T08:38:03;98341.17;;;8.71;100.00
35291;BME280;21411;50.024;19.220;2023-11-21T08:40:30;98339.90;;;8.76;100.00
35291;BME280;21411;50.024;19.220;2023-11-21T08:42:57;98338.23;;;8.83;100.00
35291;BME280;21411;50.024;19.220;2023-11-21T08:45:25;98342.27;;;8.88;100.00
35291;BME280;21411;50.024;19.220;2023-11-21T08:47:52;98344.73;;;8.93;100.00
35291;BME280;21411;50.024;19.220;2023-11-21T08:50:19;98346.59;;;8.97;100.00
35291;BME280;21411;50.024;19.220;2023-11-21T08:52:46;98346.70;;;9.01;100.00
35291;BME280;21411;50.024;19.220;2023-11-21T08:55:12;98345.38;;;9.07;100.00
35291;BME280;21411;50.024;19.220;2023-11-21T08:57:40;98347.59;;;9.10;100.00
35291;BME280;21411;50.024;19.220;2023-11-21T09:00:08;98348.95;;;9.16;100.00
35291;BME280;21411;50.024;19.220;2023-11-21T09:02:39;98343.65;;;9.24;100.00
35291;BME280;21411;50.024;19.220;2023-11-21T09:05:11;98339.43;;;9.30;100.00
35291;BME280;21411;50.024;19.220;2023-11-21T09:07:40;98339.91;;;9.38;100.00
35291;BME280;21411;50.024;19.220;2023-11-21T09:10:10;98340.11;;;9.48;100.00
35291;BME280;21411;50.024;19.220;2023-11-21T09:12:37;98338.57;;;9.52;100.00
35291;BME280;21411;50.024;19.220;2023-11-21T09:15:05;98340.62;;;9.53;100.00
35291;BME280;21411;50.024;19.220;2023-11-21T09:17:33;98338.33;;;9.53;100.00
35291;BME280;21411;50.024;19.220;2023-11-21T09:20:00;98339.89;;;9.53;100.00
35291;BME280;21411;50.024;19.220;2023-11-21T09:22:27;98337.69;;;9.52;100.00
35291;BME280;21411;50.024;19.220;2023-11-21T09:24:57;98339.61;;;9.52;100.00
35291;BME280;21411;50.024;19.220;2023-11-21T09:27:24;98342.26;;;9.55;100.00
35291;BME280;21411;50.024;19.220;2023-11-21T09:29:52;98343.35;;;9.57;100.00
35291;BME280;21411;50.024;19.220;2023-11-21T09:32:20;98346.45;;;9.63;100.00
35291;BME280;21411;50.024;19.220;2023-11-21T09:34:51;98348.10;;;9.70;100.00
35291;BME280;21411;50.024;19.220;2023-11-21T09:37:17;98342.96;;;9.70;100.00
35291;BME280;21411;50.024;19.220;2023-11-21T09:39:45;98342.86;;;9.73;100.00
35291;BME280;21411;50.024;19.220;2023-11-21T09:42:43;98346.92;;;9.74;100.00
35291;BME280;21411;50.024;19.220;2023-11-21T09:47:52;98347.34;;;9.75;100.00
35291;BME280;21411;50.024;19.220;2023-11-21T09:50:20;98347.56;;;9.77;100.00
35291;BME280;21411;50.024;19.220;2023-11-21T09:55:39;98342.86;;;9.97;100.00
35291;BME280;21411;50.024;19.220;2023-11-21T09:58:08;98344.52;;;10.08;100.00
35291;BME280;21411;50.024;19.220;2023-11-21T10:00:42;98346.61;;;10.13;100.00
35291;BME280;21411;50.024;19.220;2023-11-21T10:03:10;98349.06;;;10.11;100.00
35291;BME280;21411;50.024;19.220;2023-11-21T10:05:39;98355.34;;;10.01;100.00
35291;BME280;21411;50.024;19.220;2023-11-21T10:08:10;98357.36;;;9.86;100.00
35291;BME280;21411;50.024;19.220;2023-11-21T10:10:38;98356.17;;;9.75;100.00
35291;BME280;21411;50.024;19.220;2023-11-21T10:13:11;98357.30;;;9.73;100.00
35291;BME280;21411;50.024;19.220;2023-11-21T10:15:39;98354.69;;;9.74;100.00
35291;BME280;21411;50.024;19.220;2023-11-21T10:18:11;98353.06;;;9.77;100.00
35291;BME280;21411;50.024;19.220;2023-11-21T10:20:38;98352.16;;;9.77;100.00
35291;BME280;21411;50.024;19.220;2023-11-21T10:23:05;98353.95;;;9.77;100.00
35291;BME280;21411;50.024;19.220;2023-11-21T10:25:34;98353.14;;;9.78;100.00
35291;BME280;21411;50.024;19.220;2023-11-21T10:28:04;98354.36;;;9.83;100.00
35291;BME280;21411;50.024;19.220;2023-11-21T10:30:37;98353.48;;;9.90;100.00
35291;BME280;21411;50.024;19.220;2023-11-21T10:33:05;98350.06;;;9.96;100.00
35291;BME280;21411;50.024;19.220;2023-11-21T10:35:43;98346.45;;;9.99;100.00
35291;BME280;21411;50.024;19.220;2023-11-21T10:38:13;98343.57;;;9.99;100.00
35291;BME280;21411;50.024;19.220;2023-11-21T10:40:41;98343.63;;;10.03;100.00
35291;BME280;21411;50.024;19.220;2023-11-21T10:43:09;98341.29;;;10.08;100.00
35291;BME280;21411;50.024;19.220;2023-11-21T10:45:39;98342.17;;;10.11;100.00
35291;BME280;21411;50.024;19.220;2023-11-21T10:48:10;98340.66;;;10.09;100.00
35291;BME280;21411;50.024;19.220;2023-11-21T10:50:39;98341.95;;;10.11;100.00
35291;BME280;21411;50.024;19.220;2023-11-21T10:53:05;98344.52;;;10.10;100.00
35291;BME280;21411;50.024;19.220;2023-11-21T10:55:33;98344.66;;;10.04;100.00
35291;BME280;21411;50.024;19.220;2023-11-21T10:58:02;98343.29;;;9.96;100.00
35291;BME280;21411;50.024;19.220;2023-11-21T11:00:32;98342.27;;;9.91;100.00
35291;BME280;21411;50.024;19.220;2023-11-21T11:03:00;98340.15;;;9.88;100.00
35291;BME280;21411;50.024;19.220;2023-11-21T11:05:28;98332.40;;;9.87;100.00
35291;BME280;21411;50.024;19.220;2023-11-21T11:07:58;98334.22;;;9.84;100.00
35291;BME280;21411;50.024;19.220;2023-11-21T11:10:31;98339.70;;;9.75;100.00
35291;BME280;21411;50.024;19.220;2023-11-21T11:12:58;98337.79;;;9.65;100.00
35291;BME280;21411;50.024;19.220;2023-11-21T11:15:26;98341.94;;;9.56;100.00
35291;BME280;21411;50.024;19.220;2023-11-21T11:17:54;98343.78;;;9.48;100.00
35291;BME280;21411;50.024;19.220;2023-11-21T11:20:29;98347.29;;;9.41;100.00
35291;BME280;21411;50.024;19.220;2023-11-21T11:23:22;98347.77;;;9.37;100.00
35291;BME280;21411;50.024;19.220;2023-11-21T11:26:17;98347.56;;;9.31;100.00
35291;BME280;21411;50.024;19.220;2023-11-21T11:31:43;98349.56;;;9.15;100.00
35291;BME280;21411;50.024;19.220;2023-11-21T11:34:23;98351.86;;;9.10;100.00
35291;BME280;21411;50.024;19.220;2023-11-21T11:37:01;98353.97;;;9.06;100.00
35291;BME280;21411;50.024;19.220;2023-11-21T11:39:39;98356.05;;;9.01;100.00
35291;BME280;21411;50.024;19.220;2023-11-21T11:42:11;98362.15;;;8.97;100.00
35291;BME280;21411;50.024;19.220;2023-11-21T11:50:15;98361.66;;;8.89;100.00
35291;BME280;21411;50.024;19.220;2023-11-21T11:52:45;98366.67;;;8.89;100.00
35291;BME280;21411;50.024;19.220;2023-11-21T11:55:13;98364.86;;;8.89;100.00
35291;BME280;21411;50.024;19.220;2023-11-21T11:57:43;98365.54;;;8.95;100.00
35291;BME280;21411;50.024;19.220;2023-11-21T12:02:57;98363.48;;;9.11;100.00
35291;BME280;21411;50.024;19.220;2023-11-21T12:05:26;98367.73;;;9.16;100.00
35291;BME280;21411;50.024;19.220;2023-11-21T12:08:02;98364.25;;;9.20;100.00
35291;BME280;21411;50.024;19.220;2023-11-21T12:10:31;98364.59;;;9.23;100.00
35291;BME280;21411;50.024;19.220;2023-11-21T12:13:03;98363.46;;;9.24;100.00
35291;BME280;21411;50.024;19.220;2023-11-21T12:15:31;98364.73;;;9.21;100.00
35291;BME280;21411;50.024;19.220;2023-11-21T12:17:58;98360.77;;;9.20;100.00
35291;BME280;21411;50.024;19.220;2023-11-21T12:20:26;98360.69;;;9.21;100.00
35291;BME280;21411;50.024;19.220;2023-11-21T12:22:57;98359.41;;;9.21;100.00
35291;BME280;21411;50.024;19.220;2023-11-21T12:25:31;98360.98;;;9.21;100.00
35291;BME280;21411;50.024;19.220;2023-11-21T12:27:59;98363.86;;;9.23;100.00
35291;BME280;21411;50.024;19.220;2023-11-21T12:30:31;98361.73;;;9.23;100.00
35291;BME280;21411;50.024;19.220;2023-11-21T12:32:59;98362.45;;;9.20;100.00
35291;BME280;21411;50.024;19.220;2023-11-21T12:35:31;98361.83;;;9.19;100.00
35291;BME280;21411;50.024;19.220;2023-11-21T12:38:01;98364.99;;;9.17;100.00
35291;BME280;21411;50.024;19.220;2023-11-21T12:40:31;98367.79;;;9.13;100.00
35291;BME280;21411;50.024;19.220;2023-11-21T12:42:59;98370.90;;;9.07;100.00
35291;BME280;21411;50.024;19.220;2023-11-21T12:45:28;98374.13;;;8.99;100.00
35291;BME280;21411;50.024;19.220;2023-11-21T12:48:03;98376.18;;;8.89;100.00
35291;BME280;21411;50.024;19.220;2023-11-21T12:50:34;98375.76;;;8.83;100.00
35291;BME280;21411;50.024;19.220;2023-11-21T12:53:12;98375.98;;;8.77;100.00
35291;BME280;21411;50.024;19.220;2023-11-21T12:55:39;98378.77;;;8.75;100.00
35291;BME280;21411;50.024;19.220;2023-11-21T12:58:08;98381.48;;;8.74;100.00
35291;BME280;21411;50.024;19.220;2023-11-21T13:00:46;98382.20;;;8.74;100.00
35291;BME280;21411;50.024;19.220;2023-11-21T13:03:15;98381.80;;;8.72;100.00
35291;BME280;21411;50.024;19.220;2023-11-21T13:05:46;98380.39;;;8.72;100.00
35291;BME280;21411;50.024;19.220;2023-11-21T13:08:17;98381.83;;;8.74;100.00
35291;BME280;21411;50.024;19.220;2023-11-21T13:10:53;98383.95;;;8.77;100.00
35291;BME280;21411;50.024;19.220;2023-11-21T13:13:21;98385.08;;;8.78;100.00